Time;durP1;ratioP1;P1;durP2;ratioP2;P2;SDS_P1;SDS_P2;PMS_P1;PMS_P2;Temp;Humidity;BMP_temperature;BMP_pressure;BME280_temperature;BME280_humidity;BME280_pressure;Samples;Min_cycle;Max_cycle;Signal;HPM_P1;HPM_P2
2024/03/07 00:00:21;;;;;;;34.87;12.63;;;6.00;98.00;;;;;;4995014;28;20450;-65
2024/03/07 00:02:49;;;;;;;30.90;11.80;;;6.20;98.00;;;;;;4994493;28;20500;-64
2024/03/07 00:05:17;;;;;;;25.93;10.70;;;6.30;98.00;;;;;;4977704;28;21023;-65
2024/03/07 00:07:44;;;;;;;28.40;11.50;;;6.40;98.00;;;;;;4994605;28;20457;-65
2024/03/07 00:10:12;;;;;;;26.83;11.47;;;6.50;98.00;;;;;;4994448;28;20858;-65
2024/03/07 00:12:41;;;;;;;29.87;11.63;;;6.60;98.00;;;;;;4994484;28;20458;-64
2024/03/07 00:15:10;;;;;;;28.40;11.60;;;6.50;98.00;;;;;;4977453;28;20484;-64
2024/03/07 00:17:42;;;;;;;29.70;12.23;;;6.20;98.00;;;;;;4994457;28;20454;-65
2024/03/07 00:20:14;;;;;;;31.47;11.87;;;6.20;98.00;;;;;;4994469;28;20474;-64
2024/03/07 00:22:41;;;;;;;32.90;13.20;;;6.10;98.00;;;;;;4994406;28;20525;-64
2024/03/07 00:25:10;;;;;;;30.40;12.10;;;6.00;98.00;;;;;;4994268;28;20584;-64
2024/03/07 00:27:39;;;;;;;27.90;11.37;;;5.90;98.00;;;;;;4994052;28;20456;-64
2024/03/07 00:30:08;;;;;;;29.43;11.93;;;5.70;98.00;;;;;;4994208;28;20547;-64
2024/03/07 00:32:39;;;;;;;32.63;12.67;;;5.70;98.00;;;;;;4993884;28;20455;-64
2024/03/07 00:35:08;;;;;;;33.73;13.00;;;5.70;98.00;;;;;;4993964;28;20452;-64
2024/03/07 00:37:36;;;;;;;29.13;12.00;;;5.60;98.00;;;;;;4994020;28;20446;-63
2024/03/07 00:40:05;;;;;;;33.57;12.63;;;5.60;98.00;;;;;;4993780;28;20855;-63
2024/03/07 00:42:33;;;;;;;38.23;12.87;;;5.60;98.00;;;;;;4993673;28;20483;-65
2024/03/07 00:45:03;;;;;;;36.30;11.93;;;5.50;98.00;;;;;;4993607;28;20544;-65
2024/03/07 00:47:31;;;;;;;30.10;12.03;;;5.50;98.00;;;;;;4993826;28;20516;-63
2024/03/07 00:49:58;;;;;;;31.90;11.93;;;5.60;98.00;;;;;;4993787;28;20458;-64
2024/03/07 00:52:27;;;;;;;31.87;13.30;;;5.60;98.00;;;;;;4993768;28;20968;-64
2024/03/07 00:54:54;;;;;;;30.13;12.70;;;5.70;98.00;;;;;;5179932;23;20481;-71
2024/03/07 00:57:22;;;;;;;35.10;12.70;;;5.50;98.00;;;;;;4993012;28;20467;-71
2024/03/07 00:59:49;;;;;;;37.53;14.23;;;5.30;98.00;;;;;;4993037;28;20462;-71
2024/03/07 01:02:16;;;;;;;39.37;14.97;;;5.00;98.00;;;;;;4993055;28;20839;-71
2024/03/07 01:04:44;;;;;;;41.23;14.70;;;5.00;98.00;;;;;;4992778;28;20487;-71
2024/03/07 01:07:11;;;;;;;34.27;12.77;;;4.90;98.00;;;;;;4992897;28;20859;-71
2024/03/07 01:09:39;;;;;;;42.43;14.90;;;4.90;98.00;;;;;;4992770;28;20499;-71
2024/03/07 01:12:06;;;;;;;39.23;14.50;;;4.80;98.00;;;;;;4992753;28;20448;-71
2024/03/07 01:14:35;;;;;;;36.90;13.70;;;4.90;98.00;;;;;;4992841;28;20456;-72
2024/03/07 01:17:02;;;;;;;46.60;14.93;;;4.70;98.00;;;;;;4992522;28;20800;-71
2024/03/07 01:19:29;;;;;;;41.77;14.70;;;4.50;98.00;;;;;;4992815;28;20460;-70
2024/03/07 01:21:56;;;;;;;44.03;15.73;;;4.50;98.00;;;;;;4992426;28;20444;-70
2024/03/07 01:24:23;;;;;;;42.77;15.90;;;4.40;98.00;;;;;;4992445;28;20539;-70
2024/03/07 01:26:52;;;;;;;50.33;16.80;;;4.30;98.00;;;;;;4992681;28;20452;-70
2024/03/07 01:29:20;;;;;;;43.33;15.70;;;4.20;98.00;;;;;;4992546;28;20445;-70
2024/03/07 01:31:49;;;;;;;42.93;15.40;;;4.20;98.00;;;;;;4992113;28;20451;-70
2024/03/07 01:34:16;;;;;;;49.50;15.70;;;4.30;98.00;;;;;;4992318;28;20888;-70
2024/03/07 01:36:43;;;;;;;48.00;15.90;;;4.20;98.00;;;;;;4992244;28;20500;-70
2024/03/07 01:39:10;;;;;;;41.80;15.07;;;4.30;98.00;;;;;;4992360;28;20517;-70
2024/03/07 01:41:37;;;;;;;41.50;14.97;;;4.40;98.00;;;;;;4992082;28;20952;-70
2024/03/07 01:44:07;;;;;;;45.43;16.10;;;4.50;98.00;;;;;;4991950;28;20458;-70
2024/03/07 01:46:34;;;;;;;42.90;15.93;;;4.50;98.00;;;;;;4991794;28;20482;-70
2024/03/07 01:49:02;;;;;;;47.13;16.30;;;4.50;98.00;;;;;;4991907;28;20549;-70
2024/03/07 01:51:29;;;;;;;43.57;15.30;;;4.50;98.00;;;;;;4991545;28;20467;-70
2024/03/07 01:53:57;;;;;;;44.83;15.00;;;4.40;98.00;;;;;;4991845;28;20462;-70
2024/03/07 01:56:24;;;;;;;42.57;15.20;;;4.40;98.00;;;;;;4992350;28;20471;-70
2024/03/07 01:58:53;;;;;;;40.00;14.67;;;4.30;98.00;;;;;;4992782;28;20454;-70
2024/03/07 02:01:22;;;;;;;41.17;13.87;;;4.30;98.00;;;;;;4975595;28;20457;-69
2024/03/07 02:03:50;;;;;;;39.00;14.20;;;4.30;98.00;;;;;;4992816;28;20525;-70
2024/03/07 02:06:17;;;;;;;35.53;13.50;;;4.20;98.00;;;;;;4992419;28;20490;-70
2024/03/07 02:08:44;;;;;;;40.67;13.40;;;4.00;98.00;;;;;;4992278;28;20449;-70
2024/03/07 02:11:12;;;;;;;40.87;14.53;;;4.00;98.00;;;;;;4992186;28;20494;-70
2024/03/07 02:13:39;;;;;;;34.67;13.10;;;3.90;98.00;;;;;;4992394;28;20466;-70
2024/03/07 02:16:07;;;;;;;36.17;13.43;;;4.10;98.00;;;;;;4975336;28;20450;-70
2024/03/07 02:18:37;;;;;;;46.80;14.47;;;4.20;98.00;;;;;;4992343;28;20513;-70
2024/03/07 02:21:10;;;;;;;33.30;13.10;;;4.20;98.00;;;;;;4992126;28;20455;-70
2024/03/07 02:23:37;;;;;;;37.20;13.33;;;4.20;98.00;;;;;;4992064;28;20974;-70
2024/03/07 02:26:05;;;;;;;37.90;13.67;;;4.10;98.00;;;;;;4992103;28;20489;-70
2024/03/07 02:28:32;;;;;;;34.97;13.30;;;4.00;98.00;;;;;;4992068;28;20525;-70
2024/03/07 02:30:59;;;;;;;41.60;14.93;;;3.90;98.00;;;;;;4974535;28;20452;-70
2024/03/07 02:33:26;;;;;;;42.63;14.57;;;3.80;98.00;;;;;;4991912;28;20983;-70
2024/03/07 02:35:53;;;;;;;41.50;14.77;;;3.90;98.00;;;;;;4991970;28;20464;-70
2024/03/07 02:38:22;;;;;;;39.93;14.50;;;3.90;98.00;;;;;;4992000;28;20538;-70
2024/03/07 02:40:49;;;;;;;40.50;15.00;;;3.90;98.00;;;;;;4991901;28;20465;-70
2024/03/07 02:43:17;;;;;;;44.03;15.00;;;3.80;98.00;;;;;;4991942;28;20971;-70
2024/03/07 02:45:44;;;;;;;38.90;12.97;;;3.90;98.00;;;;;;4991897;28;20489;-70
2024/03/07 02:48:11;;;;;;;40.80;14.97;;;3.90;98.00;;;;;;4992121;28;20455;-70
2024/03/07 02:50:41;;;;;;;43.63;15.17;;;3.90;98.00;;;;;;4992204;28;20463;-70
2024/03/07 02:53:08;;;;;;;38.00;14.23;;;3.70;98.00;;;;;;4975085;28;20833;-70
2024/03/07 02:55:37;;;;;;;40.97;15.03;;;3.50;98.00;;;;;;4991878;28;20956;-70
2024/03/07 02:58:04;;;;;;;37.90;13.57;;;3.60;98.00;;;;;;4974408;28;20467;-70
2024/03/07 03:00:32;;;;;;;41.03;14.30;;;3.60;98.00;;;;;;4991975;28;20981;-70
2024/03/07 03:02:59;;;;;;;40.93;14.10;;;3.70;98.00;;;;;;4992543;28;20462;-70
2024/03/07 03:05:27;;;;;;;33.00;13.10;;;3.80;98.00;;;;;;4995605;28;20497;-70
2024/03/07 03:07:54;;;;;;;39.20;12.50;;;3.60;98.00;;;;;;4978138;28;20807;-70
2024/03/07 03:10:25;;;;;;;35.30;12.33;;;3.50;98.00;;;;;;4995550;28;20461;-70
2024/03/07 03:12:55;;;;;;;33.97;12.27;;;3.50;98.00;;;;;;4995453;28;20461;-70
2024/03/07 03:15:23;;;;;;;34.10;12.63;;;3.50;98.00;;;;;;4995501;28;20544;-70
2024/03/07 03:17:51;;;;;;;41.80;13.90;;;3.30;98.00;;;;;;4995315;28;20500;-70
2024/03/07 03:20:25;;;;;;;37.27;13.43;;;3.20;98.00;;;;;;4978080;28;20451;-70
2024/03/07 03:22:53;;;;;;;37.17;13.00;;;3.10;98.00;;;;;;4995267;28;20541;-70
2024/03/07 03:25:21;;;;;;;38.10;14.40;;;3.00;98.00;;;;;;4995296;28;20486;-70
2024/03/07 03:27:49;;;;;;;36.87;13.03;;;3.00;98.00;;;;;;4995217;28;20924;-70
2024/03/07 03:30:18;;;;;;;48.30;14.93;;;3.00;98.00;;;;;;4995090;28;20486;-70
2024/03/07 03:32:49;;;;;;;46.30;14.60;;;2.90;98.00;;;;;;4994894;28;20486;-70
2024/03/07 03:35:16;;;;;;;37.83;13.30;;;3.00;98.00;;;;;;4995167;28;20815;-70
2024/03/07 03:37:44;;;;;;;40.40;13.70;;;3.10;98.00;;;;;;4995004;28;20454;-70
2024/03/07 03:40:13;;;;;;;41.97;15.40;;;3.20;98.00;;;;;;4995045;28;20558;-70
2024/03/07 03:42:41;;;;;;;37.93;13.07;;;3.30;98.00;;;;;;4994880;28;20489;-70
2024/03/07 03:45:14;;;;;;;37.77;13.87;;;3.30;98.00;;;;;;4994945;28;20487;-70
2024/03/07 03:47:43;;;;;;;37.17;11.37;;;3.00;98.00;;;;;;4995081;28;20466;-70
2024/03/07 03:50:12;;;;;;;30.27;11.83;;;3.00;98.00;;;;;;4994999;28;20852;-70
2024/03/07 03:52:40;;;;;;;37.27;12.27;;;2.90;98.00;;;;;;4994875;28;20460;-70
2024/03/07 03:55:11;;;;;;;34.57;12.03;;;2.90;98.00;;;;;;4995042;28;20487;-70
2024/03/07 03:57:40;;;;;;;42.60;13.10;;;2.80;98.00;;;;;;4994555;28;20501;-70
2024/03/07 04:00:12;;;;;;;39.40;11.97;;;2.70;98.00;;;;;;4994331;28;20496;-70
2024/03/07 04:02:42;;;;;;;38.10;13.13;;;2.70;98.00;;;;;;4994497;28;20463;-70
2024/03/07 04:05:10;;;;;;;34.63;11.83;;;2.70;98.00;;;;;;4994551;28;20490;-70
2024/03/07 04:07:38;;;;;;;42.73;14.27;;;2.60;98.00;;;;;;4994200;28;20459;-70
2024/03/07 04:10:07;;;;;;;36.27;13.80;;;2.50;98.00;;;;;;4994311;28;20462;-70
2024/03/07 04:12:35;;;;;;;36.00;12.27;;;2.50;98.00;;;;;;4994115;28;20495;-70
2024/03/07 04:15:03;;;;;;;69.03;20.80;;;2.50;98.00;;;;;;4976165;28;20786;-70
2024/03/07 04:17:31;;;;;;;51.10;17.40;;;2.40;98.00;;;;;;4977511;28;20458;-70
2024/03/07 04:20:00;;;;;;;38.37;13.30;;;2.50;98.00;;;;;;4993909;28;20548;-70
2024/03/07 04:22:27;;;;;;;39.80;12.40;;;2.60;98.00;;;;;;4994103;28;20795;-70
2024/03/07 04:24:55;;;;;;;41.23;13.03;;;2.70;98.00;;;;;;4993987;28;20959;-70
2024/03/07 04:27:22;;;;;;;33.60;12.53;;;2.80;98.00;;;;;;4977063;28;20450;-70
2024/03/07 04:29:50;;;;;;;30.93;12.17;;;2.80;98.00;;;;;;4976721;28;20496;-70
2024/03/07 04:32:17;;;;;;;31.60;12.40;;;2.70;98.00;;;;;;4993762;28;20509;-70
2024/03/07 04:34:44;;;;;;;32.17;12.13;;;2.60;98.00;;;;;;4976614;28;20481;-70
2024/03/07 04:37:13;;;;;;;36.47;13.47;;;2.70;98.00;;;;;;4993699;28;20445;-70
2024/03/07 04:39:40;;;;;;;37.17;13.27;;;2.40;98.00;;;;;;4993811;28;20478;-70
2024/03/07 04:42:08;;;;;;;34.37;12.40;;;2.40;98.00;;;;;;4993513;28;20462;-70
2024/03/07 04:44:37;;;;;;;30.73;11.60;;;2.40;98.00;;;;;;4993832;28;20506;-70
2024/03/07 04:47:04;;;;;;;31.97;11.27;;;2.40;98.00;;;;;;4993609;28;20983;-70
2024/03/07 04:49:32;;;;;;;27.60;11.53;;;2.50;98.00;;;;;;4993617;28;20523;-70
2024/03/07 04:52:00;;;;;;;38.40;12.60;;;2.50;98.00;;;;;;4976213;28;20950;-70
2024/03/07 04:54:31;;;;;;;35.40;12.07;;;2.60;98.00;;;;;;4993725;28;20451;-70
2024/03/07 04:56:58;;;;;;;42.90;14.70;;;2.70;98.00;;;;;;4993526;28;20458;-70
2024/03/07 04:59:25;;;;;;;34.47;11.83;;;2.70;98.00;;;;;;4993304;28;20458;-70
2024/03/07 05:01:53;;;;;;;35.33;12.27;;;2.70;98.00;;;;;;4976082;28;20463;-70
2024/03/07 05:04:20;;;;;;;42.40;14.30;;;2.80;98.00;;;;;;4993381;28;20451;-70
2024/03/07 05:06:48;;;;;;;39.60;13.27;;;2.80;98.00;;;;;;4993235;28;20488;-70
2024/03/07 05:09:22;;;;;;;42.30;12.10;;;2.70;98.00;;;;;;4993088;28;20444;-70
2024/03/07 05:11:52;;;;;;;61.17;12.43;;;2.50;98.00;;;;;;4993451;28;20451;-70
2024/03/07 05:14:21;;;;;;;29.53;11.67;;;2.30;98.00;;;;;;4993647;28;20493;-70
2024/03/07 05:17:04;;;;;;;34.23;11.03;;;2.30;98.00;;;;;;4976335;28;20539;-69
2024/03/07 05:19:32;;;;;;;36.07;13.17;;;2.30;98.00;;;;;;4993611;28;20457;-70
2024/03/07 05:21:59;;;;;;;40.17;12.40;;;2.50;98.00;;;;;;4993671;28;21002;-70
2024/03/07 05:24:27;;;;;;;36.80;13.03;;;2.50;98.00;;;;;;4993537;28;20458;-69
2024/03/07 05:26:56;;;;;;;38.07;13.13;;;2.50;98.00;;;;;;4975325;28;20489;-69
2024/03/07 05:29:23;;;;;;;33.67;12.20;;;2.60;98.00;;;;;;4993391;28;20489;-70
2024/03/07 05:31:52;;;;;;;38.50;13.53;;;2.70;98.00;;;;;;4993083;28;20457;-70
2024/03/07 05:34:19;;;;;;;32.33;11.87;;;2.60;98.00;;;;;;4993470;28;20490;-70
2024/03/07 05:36:47;;;;;;;37.00;12.33;;;2.70;98.00;;;;;;4992977;28;20453;-70
2024/03/07 05:39:16;;;;;;;29.20;12.10;;;2.80;98.00;;;;;;4993070;28;20457;-69
2024/03/07 05:41:45;;;;;;;27.70;10.80;;;2.60;98.00;;;;;;4992481;28;20945;-70
2024/03/07 05:44:14;;;;;;;39.60;14.13;;;2.60;98.00;;;;;;4992627;28;20516;-69
2024/03/07 05:46:46;;;;;;;30.90;12.10;;;2.50;98.00;;;;;;4992535;28;20497;-70
2024/03/07 05:49:13;;;;;;;27.80;10.47;;;2.60;98.00;;;;;;4992560;28;20475;-70
2024/03/07 05:51:44;;;;;;;25.50;9.97;;;2.60;98.00;;;;;;4992225;28;20481;-69
2024/03/07 05:54:12;;;;;;;28.07;10.57;;;2.60;98.00;;;;;;4992189;28;20452;-70
2024/03/07 05:56:40;;;;;;;29.03;10.80;;;2.40;98.00;;;;;;4991583;28;20879;-70
2024/03/07 05:59:10;;;;;;;34.37;12.47;;;2.30;98.00;;;;;;4991840;28;20458;-70
2024/03/07 06:01:38;;;;;;;32.27;12.27;;;2.30;98.00;;;;;;4991991;28;20947;-70
2024/03/07 06:04:08;;;;;;;33.47;12.63;;;2.50;98.00;;;;;;4992456;28;20457;-69
2024/03/07 06:06:36;;;;;;;34.47;12.10;;;2.50;98.00;;;;;;4992278;28;20490;-70
2024/03/07 06:09:07;;;;;;;29.70;11.30;;;2.70;98.00;;;;;;4992496;28;20622;-70
2024/03/07 06:11:35;;;;;;;26.37;10.30;;;2.60;98.00;;;;;;4976033;28;20508;-70
2024/03/07 06:14:03;;;;;;;32.40;11.27;;;2.70;98.00;;;;;;4993006;28;20531;-70
2024/03/07 06:16:32;;;;;;;30.83;11.33;;;2.60;98.00;;;;;;4992492;28;21123;-70
2024/03/07 06:19:01;;;;;;;33.23;11.27;;;2.70;98.00;;;;;;4992341;28;20639;-70
2024/03/07 06:21:31;;;;;;;30.40;11.43;;;2.70;98.00;;;;;;4992127;28;20459;-70
2024/03/07 06:24:00;;;;;;;30.03;12.23;;;2.50;98.00;;;;;;4992401;28;20927;-70
2024/03/07 06:26:37;;;;;;;28.10;10.63;;;2.50;98.00;;;;;;4992363;28;20496;-70
2024/03/07 06:29:06;;;;;;;27.90;11.33;;;2.60;98.00;;;;;;4992471;28;20465;-70
2024/03/07 06:31:34;;;;;;;47.43;11.57;;;2.50;98.00;;;;;;4992167;28;20497;-70
2024/03/07 06:34:03;;;;;;;31.37;11.63;;;2.60;98.00;;;;;;4992578;28;20464;-70
2024/03/07 06:36:30;;;;;;;28.80;10.57;;;2.50;98.00;;;;;;4992262;28;20457;-70
2024/03/07 06:38:58;;;;;;;35.20;13.10;;;2.50;98.00;;;;;;4994553;28;20445;-70
2024/03/07 06:41:25;;;;;;;30.83;11.40;;;2.60;98.00;;;;;;4995908;28;20472;-70
2024/03/07 06:43:55;;;;;;;30.20;11.17;;;2.60;98.00;;;;;;4996087;28;20602;-70
2024/03/07 06:46:22;;;;;;;29.20;10.63;;;2.50;98.00;;;;;;4979038;28;20513;-70
2024/03/07 06:48:51;;;;;;;48.97;11.17;;;2.50;98.00;;;;;;4995992;28;20462;-70
2024/03/07 06:51:19;;;;;;;35.17;11.77;;;2.40;98.00;;;;;;4996326;28;20479;-70
2024/03/07 06:53:47;;;;;;;28.30;10.10;;;2.30;98.00;;;;;;4995892;28;20455;-70
2024/03/07 06:56:14;;;;;;;26.43;10.43;;;2.10;98.00;;;;;;4996087;28;20551;-70
2024/03/07 06:58:42;;;;;;;27.97;10.20;;;2.10;98.00;;;;;;4995764;28;20452;-69
2024/03/07 07:01:10;;;;;;;25.00;10.20;;;2.20;98.00;;;;;;4997115;28;20496;-75
2024/03/07 07:03:37;;;;;;;23.10;9.60;;;2.40;98.00;;;;;;4996129;28;20464;-75
2024/03/07 07:06:06;;;;;;;29.37;9.70;;;2.50;98.00;;;;;;4995967;28;20483;-76
2024/03/07 07:08:35;;;;;;;24.47;9.77;;;2.60;98.00;;;;;;4995866;28;20480;-75
2024/03/07 07:11:03;;;;;;;31.80;11.13;;;2.60;98.00;;;;;;4996124;28;20453;-75
2024/03/07 07:13:31;;;;;;;24.63;9.17;;;2.50;98.00;;;;;;4996336;28;20467;-78
2024/03/07 07:15:58;;;;;;;25.03;9.63;;;2.60;98.00;;;;;;4996126;28;20456;-76
2024/03/07 07:18:26;;;;;;;29.03;10.33;;;2.60;98.00;;;;;;4996532;28;20452;-73
2024/03/07 07:20:53;;;;;;;27.83;10.13;;;2.70;98.00;;;;;;4995824;28;20465;-74
2024/03/07 07:23:20;;;;;;;30.60;10.90;;;2.80;98.00;;;;;;4995538;28;20457;-74
2024/03/07 07:25:50;;;;;;;26.43;10.03;;;2.80;98.00;;;;;;4995621;28;20455;-74
2024/03/07 07:28:19;;;;;;;27.40;10.73;;;2.90;98.00;;;;;;4995608;28;20932;-73
2024/03/07 07:30:46;;;;;;;34.47;11.60;;;3.00;98.00;;;;;;4978591;28;20464;-74
2024/03/07 07:33:13;;;;;;;24.80;10.30;;;3.00;98.00;;;;;;4995680;28;20854;-75
2024/03/07 07:35:41;;;;;;;28.63;11.10;;;2.90;98.00;;;;;;4978326;28;20476;-76
2024/03/07 07:38:10;;;;;;;29.53;10.97;;;2.80;98.00;;;;;;4978079;28;20465;-74
2024/03/07 07:40:37;;;;;;;25.17;9.50;;;2.80;98.00;;;;;;4995063;28;20485;-75
2024/03/07 07:43:07;;;;;;;29.07;10.93;;;2.90;98.00;;;;;;4995179;28;20456;-72
2024/03/07 07:45:35;;;;;;;27.30;11.10;;;3.00;98.00;;;;;;4995062;28;20480;-75
2024/03/07 07:48:02;;;;;;;32.50;11.87;;;3.10;98.00;;;;;;4995097;28;20846;-74
2024/03/07 07:50:30;;;;;;;27.90;10.80;;;3.30;98.00;;;;;;4994015;28;20462;-75
2024/03/07 07:52:59;;;;;;;27.53;10.30;;;3.30;98.00;;;;;;4994624;28;20981;-74
2024/03/07 07:55:28;;;;;;;39.20;10.83;;;3.30;98.00;;;;;;4995093;28;20494;-72
2024/03/07 07:57:56;;;;;;;30.83;11.57;;;3.50;98.00;;;;;;4994726;28;20473;-73
2024/03/07 08:00:26;;;;;;;36.03;11.77;;;3.50;98.00;;;;;;4994789;28;20459;-74
2024/03/07 08:02:56;;;;;;;34.93;12.43;;;3.80;98.00;;;;;;4994671;28;20467;-74
2024/03/07 08:05:24;;;;;;;32.43;12.00;;;3.70;98.00;;;;;;5001088;28;20450;-74
2024/03/07 08:07:52;;;;;;;28.47;10.90;;;3.80;98.00;;;;;;5014381;28;20990;-72
2024/03/07 08:10:20;;;;;;;28.10;10.73;;;3.70;98.00;;;;;;5014327;28;20948;-74
2024/03/07 08:12:48;;;;;;;36.67;12.23;;;3.80;98.00;;;;;;4998921;28;20452;-73
2024/03/07 08:15:15;;;;;;;32.83;11.73;;;3.80;98.00;;;;;;4994447;28;20487;-74
2024/03/07 08:17:44;;;;;;;31.63;12.07;;;4.00;98.00;;;;;;4994362;28;20465;-74
2024/03/07 08:20:13;;;;;;;34.67;12.57;;;4.00;98.00;;;;;;4994505;28;20459;-73
2024/03/07 08:22:41;;;;;;;31.30;11.87;;;4.20;98.00;;;;;;4994430;28;20883;-72
2024/03/07 08:25:10;;;;;;;34.10;12.60;;;4.40;98.00;;;;;;4994337;28;20486;-73
2024/03/07 08:27:38;;;;;;;33.70;11.90;;;4.50;98.00;;;;;;4993839;28;20502;-75
2024/03/07 08:30:07;;;;;;;34.30;13.30;;;4.70;98.00;;;;;;4994295;28;20563;-75
2024/03/07 08:32:36;;;;;;;33.40;13.70;;;4.80;98.00;;;;;;4977052;28;20460;-74
2024/03/07 08:35:08;;;;;;;34.10;11.93;;;4.90;98.00;;;;;;4994502;28;20460;-72
2024/03/07 08:37:37;;;;;;;38.13;12.70;;;5.00;98.00;;;;;;4994142;28;20449;-72
2024/03/07 08:40:06;;;;;;;32.57;12.50;;;5.10;98.00;;;;;;4994070;28;20479;-73
2024/03/07 08:42:35;;;;;;;33.47;13.00;;;5.10;98.00;;;;;;4994052;28;20464;-72
2024/03/07 08:45:04;;;;;;;32.20;12.10;;;5.30;98.00;;;;;;4994191;28;20460;-74
2024/03/07 08:47:32;;;;;;;34.03;12.57;;;5.40;98.00;;;;;;4993844;28;20484;-74
2024/03/07 08:49:59;;;;;;;33.50;12.67;;;5.50;98.00;;;;;;4993877;28;20558;-71
2024/03/07 08:52:28;;;;;;;32.83;11.77;;;5.40;98.00;;;;;;4993642;28;20451;-74
2024/03/07 08:54:55;;;;;;;34.80;12.73;;;5.50;98.00;;;;;;4993279;28;20462;-71
2024/03/07 08:57:23;;;;;;;33.50;13.00;;;5.50;98.00;;;;;;4992561;28;20460;-74
2024/03/07 08:59:50;;;;;;;37.97;13.27;;;5.60;98.00;;;;;;4993212;28;20468;-73
2024/03/07 09:02:17;;;;;;;34.37;12.70;;;5.70;98.00;;;;;;4993506;28;20457;-73
2024/03/07 09:04:44;;;;;;;33.13;12.80;;;5.90;98.00;;;;;;4999414;28;20460;-73
2024/03/07 09:07:11;;;;;;;35.03;12.80;;;5.80;98.00;;;;;;5012268;28;21016;-72
2024/03/07 09:09:40;;;;;;;35.67;13.47;;;5.90;98.00;;;;;;4988420;28;21022;-75
2024/03/07 09:12:18;;;;;;;42.80;14.10;;;5.90;98.00;;;;;;4992312;28;20458;-73
2024/03/07 09:14:48;;;;;;;37.87;13.20;;;6.00;98.00;;;;;;4993504;28;20449;-73
2024/03/07 09:17:16;;;;;;;39.30;14.23;;;6.10;98.00;;;;;;4992573;28;20544;-74
2024/03/07 09:19:43;;;;;;;37.57;13.43;;;6.40;98.00;;;;;;4993339;28;20504;-75
2024/03/07 09:22:13;;;;;;;35.47;13.17;;;6.50;98.00;;;;;;4992859;28;20457;-76
2024/03/07 09:24:41;;;;;;;36.57;13.00;;;6.60;98.00;;;;;;4993278;28;20453;-74
2024/03/07 09:27:08;;;;;;;40.00;14.40;;;6.80;98.00;;;;;;4992725;28;20495;-73
2024/03/07 09:29:36;;;;;;;51.23;13.63;;;7.00;98.00;;;;;;4993011;28;20800;-75
2024/03/07 09:32:04;;;;;;;34.03;13.20;;;7.20;98.00;;;;;;4992712;28;20987;-73
2024/03/07 09:34:31;;;;;;;39.67;14.47;;;7.30;98.00;;;;;;4993135;28;20467;-73
2024/03/07 09:36:59;;;;;;;33.73;13.30;;;7.30;98.00;;;;;;4992775;28;20494;-74
2024/03/07 09:39:27;;;;;;;37.63;14.00;;;7.40;98.00;;;;;;4974914;28;20549;-73
2024/03/07 09:41:56;;;;;;;36.60;14.27;;;7.50;98.00;;;;;;4992483;28;20495;-74
2024/03/07 09:44:28;;;;;;;38.90;14.50;;;7.50;98.00;;;;;;4992891;28;20808;-73
2024/03/07 09:46:58;;;;;;;43.60;13.80;;;7.60;98.00;;;;;;4992284;28;20888;-72
2024/03/07 09:49:26;;;;;;;36.80;14.70;;;7.60;98.00;;;;;;4992278;28;20506;-74
2024/03/07 09:51:54;;;;;;;39.67;14.60;;;7.70;98.00;;;;;;4992023;28;20466;-74
2024/03/07 09:54:24;;;;;;;45.10;14.90;;;7.80;98.00;;;;;;4992964;28;20451;-73
2024/03/07 09:56:53;;;;;;;40.73;14.23;;;7.90;98.00;;;;;;4992283;28;20506;-72
2024/03/07 09:59:26;;;;;;;38.73;14.97;;;8.00;98.00;;;;;;4975320;28;20491;-72
2024/03/07 10:01:56;;;;;;;44.07;15.93;;;8.20;98.00;;;;;;4992370;28;20541;-72
2024/03/07 10:04:30;;;;;;;45.10;15.27;;;8.50;98.00;;;;;;4992396;28;20475;-70
2024/03/07 10:06:57;;;;;;;38.73;13.57;;;8.60;98.00;;;;;;4975573;28;20514;-72
2024/03/07 10:09:25;;;;;;;38.77;15.40;;;8.70;98.00;;;;;;4992554;28;20447;-73
2024/03/07 10:11:58;;;;;;;39.40;15.43;;;8.80;98.00;;;;;;4992222;28;20458;-73
2024/03/07 10:14:26;;;;;;;39.60;15.00;;;8.80;98.00;;;;;;4992050;28;20516;-74
2024/03/07 10:16:56;;;;;;;40.20;15.50;;;8.80;98.00;;;;;;4991846;28;20473;-72
2024/03/07 10:19:27;;;;;;;39.20;14.37;;;8.80;98.00;;;;;;4992709;28;20470;-74
2024/03/07 10:21:58;;;;;;;38.43;14.03;;;8.70;98.00;;;;;;4992123;28;20463;-72
2024/03/07 10:24:26;;;;;;;42.73;16.00;;;8.90;98.00;;;;;;4992379;28;20930;-74
2024/03/07 10:26:53;;;;;;;38.13;15.03;;;9.20;98.00;;;;;;4991623;28;20467;-72
2024/03/07 10:29:23;;;;;;;43.23;15.50;;;9.40;98.00;;;;;;4992212;28;20456;-73
2024/03/07 10:31:51;;;;;;;46.50;17.10;;;9.70;98.00;;;;;;4992337;28;20849;-73
2024/03/07 10:34:18;;;;;;;45.53;16.43;;;9.80;98.00;;;;;;4992496;28;20452;-73
2024/03/07 10:36:46;;;;;;;39.60;14.13;;;9.60;98.00;;;;;;4975050;28;20458;-73
2024/03/07 10:39:16;;;;;;;48.07;16.43;;;9.50;98.00;;;;;;4992269;28;20449;-71
2024/03/07 10:41:47;;;;;;;40.90;15.47;;;9.30;98.00;;;;;;4991679;28;20515;-72
2024/03/07 10:44:22;;;;;;;40.23;15.67;;;9.10;98.00;;;;;;4992191;28;20490;-72
2024/03/07 10:46:57;;;;;;;35.60;14.67;;;9.00;98.00;;;;;;4992022;28;20933;-73
2024/03/07 10:49:28;;;;;;;40.23;15.17;;;8.90;98.00;;;;;;4992318;28;20483;-74
2024/03/07 10:52:03;;;;;;;38.80;14.70;;;8.80;98.00;;;;;;4992031;28;20461;-72
2024/03/07 10:54:46;;;;;;;36.50;14.70;;;8.80;98.00;;;;;;4974681;28;20470;-74
2024/03/07 10:57:22;;;;;;;41.70;16.27;;;8.70;98.00;;;;;;4992217;28;20455;-75
2024/03/07 10:59:53;;;;;;;41.93;16.03;;;8.80;98.00;;;;;;4992341;28;20502;-74
2024/03/07 11:02:33;;;;;;;44.83;16.30;;;8.80;98.00;;;;;;4992089;28;20973;-74
2024/03/07 11:05:00;;;;;;;40.43;16.07;;;8.60;98.00;;;;;;4991400;28;20452;-74
2024/03/07 11:07:29;;;;;;;43.27;15.43;;;8.70;98.00;;;;;;4991801;28;20477;-72
2024/03/07 11:09:56;;;;;;;38.80;15.67;;;9.10;98.00;;;;;;4991680;28;20511;-73
2024/03/07 11:12:28;;;;;;;39.70;15.83;;;9.30;98.00;;;;;;4991680;28;20488;-71
2024/03/07 11:14:57;;;;;;;41.80;16.43;;;9.80;98.00;;;;;;4991778;28;20453;-72
2024/03/07 11:17:27;;;;;;;43.17;16.37;;;10.30;98.00;;;;;;4991943;28;20435;-73
2024/03/07 11:19:54;;;;;;;42.77;16.50;;;10.40;98.00;;;;;;4991535;28;20985;-72
2024/03/07 11:22:34;;;;;;;47.40;17.00;;;10.50;98.00;;;;;;4991685;28;20475;-73
2024/03/07 11:25:07;;;;;;;45.10;16.90;;;10.30;98.00;;;;;;4992450;28;20869;-72
2024/03/07 11:27:38;;;;;;;40.17;16.00;;;10.30;98.00;;;;;;4995308;28;20882;-73
2024/03/07 11:30:09;;;;;;;46.17;17.27;;;10.20;98.00;;;;;;4977878;28;20458;-72
2024/03/07 11:32:40;;;;;;;40.60;16.13;;;10.10;98.00;;;;;;4995358;28;20456;-75
2024/03/07 11:35:14;;;;;;;39.80;14.23;;;10.00;98.00;;;;;;4995206;28;20459;-74
2024/03/07 11:37:43;;;;;;;42.63;16.23;;;10.20;98.00;;;;;;4982966;28;20456;-75
2024/03/07 11:40:18;;;;;;;39.70;16.03;;;10.10;98.00;;;;;;4994408;28;20545;-72
2024/03/07 11:42:47;;;;;;;43.90;15.27;;;10.00;98.00;;;;;;4993962;28;20957;-74
2024/03/07 11:45:24;;;;;;;46.03;16.40;;;9.80;98.00;;;;;;4994850;28;20453;-73
2024/03/07 11:47:59;;;;;;;49.87;16.63;;;9.80;98.00;;;;;;4994814;28;21011;-73
2024/03/07 11:50:26;;;;;;;39.60;15.47;;;9.60;98.00;;;;;;4995018;28;20455;-72
2024/03/07 11:52:54;;;;;;;44.00;17.27;;;9.60;98.00;;;;;;4977467;28;20458;-73
2024/03/07 11:55:22;;;;;;;42.23;16.83;;;9.60;98.00;;;;;;4994381;28;20476;-71
2024/03/07 11:57:50;;;;;;;38.70;16.00;;;9.70;98.00;;;;;;4994571;28;20495;-73
2024/03/07 12:00:19;;;;;;;38.80;16.07;;;9.60;98.00;;;;;;4994733;28;20583;-73
2024/03/07 12:02:48;;;;;;;43.37;16.80;;;9.60;98.00;;;;;;4993306;28;20469;-73
2024/03/07 12:05:17;;;;;;;42.83;16.40;;;9.60;98.00;;;;;;4994796;28;20456;-73
2024/03/07 12:07:44;;;;;;;37.07;14.93;;;9.70;98.00;;;;;;4994264;28;20898;-74
2024/03/07 12:10:12;;;;;;;39.63;16.20;;;9.70;98.00;;;;;;4977254;28;20477;-72
2024/03/07 12:12:39;;;;;;;41.90;16.23;;;9.60;98.00;;;;;;4992965;28;20448;-73
2024/03/07 12:15:15;;;;;;;41.27;16.37;;;9.60;98.00;;;;;;4976768;28;20456;-73
2024/03/07 12:17:43;;;;;;;41.70;17.20;;;9.50;98.00;;;;;;4994079;28;20518;-76
2024/03/07 12:22:57;;;;;;;42.30;15.80;;;9.60;98.00;;;;;;4978497;28;20460;-74
2024/03/07 12:25:25;;;;;;;37.97;15.77;;;9.50;98.00;;;;;;4994473;28;20456;-74
2024/03/07 12:28:05;;;;;;;40.70;15.50;;;9.50;98.00;;;;;;4976646;28;20488;-73
2024/03/07 12:30:34;;;;;;;39.70;16.30;;;9.50;98.00;;;;;;4977515;28;20491;-74
2024/03/07 12:33:07;;;;;;;36.63;16.10;;;9.50;98.00;;;;;;4994396;28;20464;-73
2024/03/07 12:35:34;;;;;;;37.53;14.60;;;9.60;98.00;;;;;;4993706;28;20922;-72
2024/03/07 12:38:04;;;;;;;36.43;14.57;;;9.70;98.00;;;;;;4994064;28;20459;-72
2024/03/07 12:40:33;;;;;;;41.70;16.27;;;9.70;98.00;;;;;;4994157;28;20872;-73
2024/03/07 12:43:02;;;;;;;46.57;17.13;;;9.80;98.00;;;;;;4994038;28;20862;-74
2024/03/07 12:45:33;;;;;;;42.97;15.97;;;9.80;98.00;;;;;;4976928;28;20523;-74